Latest Weather Observations for Fort Denison

IDN60801

Issued at 9:12 pm EST Wednesday 5 August 2020 (issued every 10 minutes, with the page automatically refreshed every 10 minutes)

About weather observations | Map of weather stations | Latest weather observations for NSW | Other Formats
Station Details ID: 066022 Name: FORT DENISON Lat: -33.86 Lon: 151.23 Height: 5.0 m
Data from the previous 72 hours. | See also: Recent months for locations in New South Wales
Date/Time
EST
Temp
°C
App
Temp
°C
Dew
Point
°C
Rel
Hum
%
Delta-T
°C
Wind Press
QNH
hPa
Press
MSL
hPa
Rain since
9am
mm
Dir  Spd
km/h
Gust
km/h
Spd
kts
Gust
kts
05/09:00pm - - - - - W 19 24 10 13 - - -
05/08:30pm - - - - - WNW 15 20 8 11 - - -
05/08:00pm - - - - - W 20 28 11 15 - - -
05/07:30pm - - - - - W 17 26 9 14 - - -
05/07:00pm - - - - - W 19 30 10 16 - - -
05/06:30pm - - - - - WSW 13 22 7 12 - - -
05/06:00pm - - - - - SW 13 24 7 13 - - -
05/05:30pm - - - - - WSW 17 28 9 15 - - -
05/05:00pm - - - - - WSW 24 32 13 17 - - -
05/04:30pm - - - - - WSW 24 32 13 17 - - -
05/04:00pm - - - - - W 22 33 12 18 - - -
05/03:36pm - - - - - W 30 48 16 26 - - -
05/03:30pm - - - - - W 24 37 13 20 - - -
05/03:16pm - - - - - WNW 28 46 15 25 - - -
05/03:00pm - - - - - WNW 24 33 13 18 - - -
05/02:30pm - - - - - WNW 26 39 14 21 - - -
05/02:00pm - - - - - WNW 26 35 14 19 - - -
05/01:30pm - - - - - WNW 22 33 12 18 - - -
05/01:00pm - - - - - W 20 28 11 15 - - -
05/12:30pm - - - - - W 22 32 12 17 - - -
05/12:00pm - - - - - WNW 26 37 14 20 - - -
05/11:30am - - - - - WNW 30 39 16 21 - - -
05/11:00am - - - - - WNW 22 32 12 17 - - -
05/10:30am - - - - - WNW 26 37 14 20 - - -
05/10:00am - - - - - NW 22 33 12 18 - - -
05/09:30am - - - - - NW 24 39 13 21 - - -
05/09:00am - - - - - NW 24 33 13 18 - - -
05/08:30am - - - - - NNW 26 37 14 20 - - -
05/08:00am - - - - - NW 20 32 11 17 - - -
05/07:30am - - - - - NNW 30 37 16 20 - - -
05/07:00am - - - - - WNW 17 24 9 13 - - -
05/06:30am - - - - - WNW 11 17 6 9 - - -
05/06:00am - - - - - NW 17 24 9 13 - - -
05/05:30am - - - - - WNW 17 28 9 15 - - -
05/05:00am - - - - - WNW 17 24 9 13 - - -
05/04:30am - - - - - WNW 20 30 11 16 - - -
05/04:00am - - - - - W 19 26 10 14 - - -
05/03:30am - - - - - W 24 33 13 18 - - -
05/03:00am - - - - - W 28 39 15 21 - - -
05/02:30am - - - - - W 30 43 16 23 - - -
05/02:00am - - - - - W 32 46 17 25 - - -
05/01:32am - - - - - W 28 52 15 28 - - -
05/01:30am - - - - - W 26 52 14 28 - - -
05/01:00am - - - - - W 24 39 13 21 - - -
05/12:30am - - - - - W 28 33 15 18 - - -
05/12:00am - - - - - WSW 32 43 17 23 - - -
 
Date/Time
EST
Temp
°C
App
Temp
°C
Dew
Point
°C
Rel
Hum
%
Delta-T
°C
Wind Press
QNH
hPa
Press
MSL
hPa
Rain since
9am
mm
Dir  Spd
km/h
Gust
km/h
Spd
kts
Gust
kts
04/11:42pm - - - - - WSW 30 48 16 26 - - -
04/11:30pm - - - - - WSW 20 41 11 22 - - -
04/11:00pm - - - - - W 22 35 12 19 - - -
04/10:30pm - - - - - W 19 32 10 17 - - -
04/10:00pm - - - - - WSW 13 26 7 14 - - -
04/09:30pm - - - - - SW 13 24 7 13 - - -
04/09:00pm - - - - - WSW 15 28 8 15 - - -
04/08:30pm - - - - - WSW 22 33 12 18 - - -
04/08:00pm - - - - - WSW 13 24 7 13 - - -
04/07:30pm - - - - - W 20 26 11 14 - - -
04/07:00pm - - - - - W 20 26 11 14 - - -
04/06:30pm - - - - - W 20 28 11 15 - - -
04/06:00pm - - - - - W 20 26 11 14 - - -
04/05:30pm - - - - - WNW 20 30 11 16 - - -
04/05:00pm - - - - - WNW 30 41 16 22 - - -
04/04:30pm - - - - - W 30 48 16 26 - - -
04/04:25pm - - - - - W 30 48 16 26 - - -
04/04:00pm - - - - - WNW 22 35 12 19 - - -
04/03:30pm - - - - - NW 13 20 7 11 - - -
04/03:00pm - - - - - NW 22 35 12 19 - - -
04/02:30pm - - - - - NW 20 30 11 16 - - -
04/02:00pm - - - - - WNW 20 35 11 19 - - -
04/01:30pm - - - - - WNW 19 30 10 16 - - -
04/01:00pm - - - - - NW 19 32 10 17 - - -
04/12:30pm - - - - - WNW 17 24 9 13 - - -
04/12:00pm - - - - - NW 11 20 6 11 - - -
04/11:30am - - - - - NNW 15 26 8 14 - - -
04/11:00am - - - - - NW 15 22 8 12 - - -
04/10:30am - - - - - NW 15 24 8 13 - - -
04/10:00am - - - - - NNE 6 11 3 6 - - -
04/09:30am - - - - - W 2 6 1 3 - - -
04/09:00am - - - - - NW 4 6 2 3 - - -
04/08:30am - - - - - WNW 4 7 2 4 - - -
04/08:00am - - - - - WNW 6 7 3 4 - - -
04/07:30am - - - - - S 2 4 1 2 - - -
04/07:00am - - - - - W 6 7 3 4 - - -
04/06:30am - - - - - WNW 6 9 3 5 - - -
04/06:00am - - - - - WNW 6 9 3 5 - - -
04/05:30am - - - - - WNW 7 9 4 5 - - -
04/05:00am - - - - - W 11 19 6 10 - - -
04/04:30am - - - - - W 13 17 7 9 - - -
04/04:00am - - - - - W 15 19 8 10 - - -
04/03:30am - - - - - W 17 20 9 11 - - -
04/03:00am - - - - - W 17 20 9 11 - - -
04/02:30am - - - - - W 15 19 8 10 - - -
04/02:00am - - - - - W 15 19 8 10 - - -
04/01:30am - - - - - W 13 17 7 9 - - -
04/01:00am - - - - - W 17 20 9 11 - - -
04/12:30am - - - - - W 15 20 8 11 - - -
04/12:00am - - - - - WNW 9 11 5 6 - - -
 
Date/Time
EST
Temp
°C
App
Temp
°C
Dew
Point
°C
Rel
Hum
%
Delta-T
°C
Wind Press
QNH
hPa
Press
MSL
hPa
Rain since
9am
mm
Dir  Spd
km/h
Gust
km/h
Spd
kts
Gust
kts
03/11:30pm - - - - - NW 7 9 4 5 - - -
03/11:00pm - - - - - WNW 7 9 4 5 - - -
03/10:30pm - - - - - WNW 6 7 3 4 - - -
03/10:00pm - - - - - W 9 11 5 6 - - -
03/09:30pm - - - - - W 9 11 5 6 - - -
03/09:00pm - - - - - W 11 13 6 7 - - -
03/08:30pm - - - - - W 11 13 6 7 - - -
03/08:00pm - - - - - WNW 11 13 6 7 - - -
03/07:30pm - - - - - WNW 7 11 4 6 - - -
03/07:00pm - - - - - WNW 9 11 5 6 - - -
03/06:30pm - - - - - W 6 9 3 5 - - -
03/06:00pm - - - - - E 4 4 2 2 - - -
03/05:30pm - - - - - CALM 0 2 0 1 - - -
03/05:00pm - - - - - N 2 4 1 2 - - -
03/04:30pm - - - - - ESE 2 4 1 2 - - -
03/04:00pm - - - - - ESE 7 9 4 5 - - -
03/03:30pm - - - - - ESE 7 9 4 5 - - -
03/03:00pm - - - - - ESE 7 9 4 5 - - -
03/02:30pm - - - - - ESE 11 13 6 7 - - -
03/02:00pm - - - - - E 13 17 7 9 - - -
03/01:30pm - - - - - E 9 11 5 6 - - -
03/01:00pm - - - - - E 4 7 2 4 - - -
03/12:30pm - - - - - W 6 9 3 5 - - -
03/12:00pm - - - - - W 9 11 5 6 - - -
03/11:30am - - - - - W 9 11 5 6 - - -
03/11:00am - - - - - W 11 15 6 8 - - -
03/10:30am - - - - - WNW 13 15 7 8 - - -
03/10:00am - - - - - WNW 13 19 7 10 - - -
03/09:30am - - - - - WNW 17 19 9 10 - - -
03/09:00am - - - - - WNW 19 22 10 12 - - -
03/08:30am - - - - - WNW 17 19 9 10 - - -
03/08:00am - - - - - WNW 15 19 8 10 - - -
03/07:30am - - - - - W 15 20 8 11 - - -
03/07:00am - - - - - W 19 22 10 12 - - -
03/06:30am - - - - - W 20 24 11 13 - - -
03/06:00am - - - - - W 17 20 9 11 - - -
03/05:30am - - - - - WNW 13 15 7 8 - - -
03/05:00am - - - - - WNW 13 17 7 9 - - -
03/04:30am - - - - - WNW 11 15 6 8 - - -
03/04:00am - - - - - WNW 11 15 6 8 - - -
03/03:30am - - - - - WNW 13 15 7 8 - - -
03/03:00am - - - - - W 13 17 7 9 - - -
03/02:30am - - - - - WNW 11 13 6 7 - - -
03/02:00am - - - - - WNW 11 11 6 6 - - -
03/01:30am - - - - - WNW 11 13 6 7 - - -
03/01:00am - - - - - WNW 9 11 5 6 - - -
03/12:30am - - - - - WNW 13 15 7 8 - - -
03/12:00am - - - - - W 15 17 8 9 - - -
 
Date/Time
EST
Temp
°C
App
Temp
°C
Dew
Point
°C
Rel
Hum
%
Delta-T
°C
Wind Press
QNH
hPa
Press
MSL
hPa
Rain since
9am
mm
Dir  Spd
km/h
Gust
km/h
Spd
kts
Gust
kts
02/11:30pm - - - - - WNW 6 7 3 4 - - -
02/11:00pm - - - - - WNW 7 11 4 6 - - -
02/10:30pm - - - - - NNW 4 6 2 3 - - -
02/10:00pm - - - - - N 6 6 3 3 - - -
02/09:30pm - - - - - NNE 2 4 1 2 - - -

Other formats

Comma delimited format used in spreadsheet applications
http://www.bom.gov.au/fwo/IDN60801/IDN60801.94769.axf

JavaScript Object Notation format (JSON) in row-major order
http://www.bom.gov.au/fwo/IDN60801/IDN60801.94769.json

Data quality

Most of these data are generated automatically and are frequently updated. Quality checks on data are not normally performed. It is possible for incorrect values to appear. Refer to information at About Latest Weather Observations and please check the disclaimer before using these data.